Terminal Aerodrome Forecast
Issued by NWS

Current Version | Previous Version | Text Only | Print | Product List | Glossary Off
Versions: 1 2 3 4 5 6 7 8 9 10 11 12 13 14 15 16 17 18

240
FTUS44 KCRP 032325
TAFLRD
TAF
KLRD 032325Z 0400/0424 02013KT P6SM -RA BKN005 BKN017 OVC080
     FM040400 01007KT 6SM -SHRA BR BKN009 OVC015
      TEMPO 0404/0408 4SM -TSRA BR BKN005 OVC010CB
     FM041400 01012KT 5SM -RA BR OVC007=

USA.gov is the U.S. government's official web portal to all federal, state and local government web resources and services.